createdAt,value
2022-08-31T00:00:44.551Z,33.40
2022-08-31T00:03:15.010Z,26.00
2022-08-31T00:05:45.597Z,28.60
2022-08-31T00:08:16.817Z,25.00
2022-08-31T00:10:47.308Z,29.20
2022-08-31T00:13:18.489Z,29.00
2022-08-31T00:15:50.969Z,29.00
2022-08-31T00:18:22.981Z,33.60
2022-08-31T00:20:53.447Z,33.20
2022-08-31T00:23:23.981Z,28.80
2022-08-31T00:25:54.545Z,29.00
2022-08-31T00:28:25.210Z,28.60
2022-08-31T00:30:55.791Z,34.00
2022-08-31T00:33:26.225Z,30.20
2022-08-31T00:35:56.605Z,27.00
2022-08-31T00:38:27.616Z,32.80
2022-08-31T00:40:58.089Z,31.00
2022-08-31T00:43:43.889Z,31.40
2022-08-31T00:46:20.058Z,31.80
2022-08-31T00:48:53.426Z,35.60
2022-08-31T00:51:24.607Z,31.40
2022-08-31T00:54:15.734Z,24.80
2022-08-31T00:56:46.807Z,28.20
2022-08-31T00:59:22.776Z,27.60
2022-08-31T01:01:53.466Z,31.40
2022-08-31T01:04:24.003Z,32.00
2022-08-31T01:06:59.245Z,27.20
2022-08-31T01:09:32.709Z,29.60
2022-08-31T01:12:07.718Z,27.20
2022-08-31T01:14:39.016Z,28.40
2022-08-31T01:17:09.627Z,32.40
2022-08-31T01:19:42.944Z,34.00
2022-08-31T01:22:32.875Z,35.60
2022-08-31T01:25:04.476Z,34.60
2022-08-31T01:27:37.487Z,33.20
2022-08-31T01:30:10.835Z,32.00
2022-08-31T01:32:41.489Z,31.40
2022-08-31T01:35:12.055Z,31.00
2022-08-31T01:37:43.117Z,34.60
2022-08-31T01:40:14.591Z,34.20
2022-08-31T01:42:45.626Z,30.60
2022-08-31T01:45:16.181Z,33.00
2022-08-31T01:47:46.737Z,32.00
2022-08-31T01:50:17.241Z,30.80
2022-08-31T01:52:47.796Z,33.60
2022-08-31T01:55:18.155Z,29.80
2022-08-31T01:57:48.620Z,34.20
2022-08-31T02:00:19.121Z,24.40
2022-08-31T02:02:50.272Z,34.80
2022-08-31T02:05:20.852Z,32.60
2022-08-31T02:07:51.638Z,30.40
2022-08-31T02:10:22.417Z,27.40
2022-08-31T02:12:52.941Z,29.40
2022-08-31T02:15:26.543Z,33.00
2022-08-31T02:17:57.969Z,26.40
2022-08-31T02:20:28.552Z,30.80
2022-08-31T02:22:58.870Z,30.60
2022-08-31T02:25:30.224Z,31.80
2022-08-31T02:28:00.626Z,31.20
2022-08-31T02:30:31.084Z,30.60
2022-08-31T02:33:01.587Z,29.60
2022-08-31T02:35:32.029Z,28.60
2022-08-31T02:38:02.751Z,26.60
2022-08-31T02:40:34.095Z,28.20
2022-08-31T02:43:09.156Z,33.60
2022-08-31T02:45:41.104Z,28.40
2022-08-31T02:48:12.510Z,29.60
2022-08-31T02:50:47.186Z,31.40
2022-08-31T02:53:19.573Z,31.00
2022-08-31T02:55:50.691Z,30.60
2022-08-31T02:58:24.114Z,29.20
2022-08-31T03:00:53.419Z,26.00
2022-08-31T03:03:23.825Z,28.80
2022-08-31T03:05:54.776Z,27.60
2022-08-31T03:08:25.291Z,32.00
2022-08-31T03:10:56.048Z,29.40
2022-08-31T03:13:26.400Z,29.80
2022-08-31T03:15:57.867Z,26.00
2022-08-31T03:18:28.419Z,29.80
2022-08-31T03:20:59.131Z,26.20
2022-08-31T03:23:29.513Z,29.40
2022-08-31T03:26:00.434Z,26.20
2022-08-31T03:28:30.914Z,28.00
2022-08-31T03:31:01.476Z,32.20
2022-08-31T03:33:31.907Z,28.00
2022-08-31T03:36:02.878Z,31.40
2022-08-31T03:38:33.744Z,28.00
2022-08-31T03:41:04.232Z,36.50
2022-08-31T03:43:35.957Z,31.80
2022-08-31T03:46:12.158Z,29.40
2022-08-31T03:48:40.159Z,29.80
2022-08-31T03:51:10.720Z,29.20
2022-08-31T03:53:41.946Z,35.60
2022-08-31T03:56:12.424Z,32.60
2022-08-31T03:58:43.204Z,30.40
2022-08-31T04:01:15.220Z,33.60
2022-08-31T04:03:45.906Z,30.60
2022-08-31T04:06:16.530Z,31.60
2022-08-31T04:08:49.085Z,31.00
2022-08-31T04:11:37.134Z,37.00
2022-08-31T04:13:55.785Z,39.00
2022-08-31T04:16:27.201Z,37.80
2022-08-31T04:18:58.437Z,35.80
2022-08-31T04:21:30.507Z,34.60
2022-08-31T04:24:02.608Z,33.40
2022-08-31T04:26:36.327Z,37.60
2022-08-31T04:29:12.806Z,38.40
2022-08-31T04:31:40.996Z,33.00
2022-08-31T04:34:15.004Z,31.00
2022-08-31T04:36:46.203Z,32.60
2022-08-31T04:39:16.979Z,32.40
2022-08-31T04:41:47.723Z,28.20
2022-08-31T04:44:20.054Z,29.20
2022-08-31T04:46:50.365Z,31.20
2022-08-31T04:49:20.918Z,32.60
2022-08-31T04:51:51.415Z,34.00
2022-08-31T04:54:21.982Z,33.60
2022-08-31T04:56:52.531Z,39.40
2022-08-31T04:59:22.945Z,36.20
2022-08-31T05:01:53.970Z,33.20
2022-08-31T05:04:24.776Z,35.20
2022-08-31T05:06:55.338Z,37.60
2022-08-31T05:09:26.162Z,34.20
2022-08-31T05:11:56.825Z,30.20
2022-08-31T05:14:27.867Z,31.80
2022-08-31T05:16:58.703Z,29.40
2022-08-31T05:19:29.705Z,30.00
2022-08-31T05:22:03.307Z,32.20
2022-08-31T05:24:34.016Z,35.20
2022-08-31T05:27:05.426Z,35.80
2022-08-31T05:29:35.772Z,33.40
2022-08-31T05:32:06.982Z,32.20
2022-08-31T05:34:38.255Z,28.80
2022-08-31T05:37:09.028Z,24.60
2022-08-31T05:39:40.096Z,34.00
2022-08-31T05:42:10.562Z,30.80
2022-08-31T05:44:41.778Z,27.00
2022-08-31T05:47:12.145Z,33.20
2022-08-31T05:49:43.841Z,27.60
2022-08-31T05:52:14.170Z,27.20
2022-08-31T05:54:45.233Z,25.40
2022-08-31T05:57:15.565Z,28.60
2022-08-31T05:59:46.130Z,25.00
2022-08-31T06:02:16.745Z,29.40
2022-08-31T06:04:47.145Z,27.00
2022-08-31T06:07:17.682Z,28.00
2022-08-31T06:09:48.102Z,27.60
2022-08-31T06:12:18.801Z,29.00
2022-08-31T06:14:52.835Z,28.00
2022-08-31T06:17:21.852Z,22.80
2022-08-31T06:19:52.275Z,21.00
2022-08-31T06:22:22.640Z,27.40
2022-08-31T06:24:53.286Z,19.40
2022-08-31T06:27:23.740Z,23.00
2022-08-31T06:29:54.367Z,24.40
2022-08-31T06:32:24.911Z,17.80
2022-08-31T06:34:55.548Z,24.60
2022-08-31T06:37:25.911Z,22.00
2022-08-31T06:39:56.298Z,22.00
2022-08-31T06:42:26.699Z,27.20
2022-08-31T06:44:57.106Z,21.40
2022-08-31T06:47:27.636Z,28.60
2022-08-31T06:49:58.174Z,27.00
2022-08-31T06:52:28.564Z,30.20
2022-08-31T06:54:59.246Z,40.40
2022-08-31T06:57:29.543Z,12.60
2022-08-31T07:00:01.544Z,31.60
2022-08-31T07:02:32.375Z,27.20
2022-08-31T07:05:02.844Z,26.60
2022-08-31T07:07:33.544Z,24.80
2022-08-31T07:10:04.856Z,22.80
2022-08-31T07:12:35.962Z,23.40
2022-08-31T07:15:06.881Z,23.40
2022-08-31T07:17:37.387Z,27.20
2022-08-31T07:20:09.043Z,23.80
2022-08-31T07:22:40.013Z,24.20
2022-08-31T07:25:10.557Z,23.80
2022-08-31T07:27:42.092Z,20.20
2022-08-31T07:30:13.349Z,19.40
2022-08-31T07:32:44.205Z,17.20
2022-08-31T07:35:14.850Z,12.80
2022-08-31T07:37:45.626Z,18.20
2022-08-31T07:40:16.082Z,22.60
2022-08-31T07:42:47.618Z,23.60
2022-08-31T07:45:21.471Z,20.60
2022-08-31T07:47:55.280Z,22.80
2022-08-31T07:50:25.983Z,22.80
2022-08-31T07:52:56.491Z,22.40
2022-08-31T07:55:28.778Z,19.80
2022-08-31T07:57:59.185Z,15.20
2022-08-31T08:00:32.087Z,15.00
2022-08-31T08:03:02.771Z,15.80
2022-08-31T08:05:35.392Z,16.00
2022-08-31T08:08:12.204Z,16.00
2022-08-31T08:10:46.815Z,16.80
2022-08-31T08:13:16.139Z,16.20
2022-08-31T08:15:46.777Z,13.20
2022-08-31T08:18:17.666Z,15.60
2022-08-31T08:20:48.273Z,13.40
2022-08-31T08:23:28.194Z,16.40
2022-08-31T08:25:52.187Z,15.80
2022-08-31T08:28:38.585Z,19.60
2022-08-31T08:30:54.746Z,18.00
2022-08-31T08:33:25.439Z,19.20
2022-08-31T08:35:59.357Z,20.00
2022-08-31T08:38:31.366Z,20.00
2022-08-31T08:41:04.856Z,22.80
2022-08-31T08:43:38.194Z,16.40
2022-08-31T08:46:33.627Z,17.80
2022-08-31T08:48:45.788Z,17.20
2022-08-31T08:51:21.334Z,15.80
2022-08-31T08:53:54.654Z,7.80
2022-08-31T08:56:33.243Z,16.40
2022-08-31T08:58:57.477Z,18.00
2022-08-31T09:01:29.313Z,17.60
2022-08-31T09:04:28.567Z,16.60
2022-08-31T09:07:17.016Z,16.00
2022-08-31T09:09:53.798Z,19.60
2022-08-31T09:12:42.315Z,19.80
2022-08-31T09:15:32.786Z,19.20
2022-08-31T09:18:33.245Z,18.60
2022-08-31T09:21:06.457Z,16.20
2022-08-31T09:23:39.651Z,14.40
2022-08-31T09:26:12.956Z,19.00
2022-08-31T09:28:46.080Z,16.00
2022-08-31T09:31:37.799Z,14.40
2022-08-31T09:34:11.227Z,15.20
2022-08-31T09:36:43.153Z,18.00
2022-08-31T09:39:21.863Z,17.60
2022-08-31T09:41:53.039Z,14.20
2022-08-31T09:44:37.997Z,17.60
2022-08-31T09:47:14.129Z,16.80
2022-08-31T09:49:47.371Z,15.00
2022-08-31T09:52:23.683Z,13.60
2022-08-31T09:54:59.349Z,15.00
2022-08-31T09:57:44.799Z,15.60
2022-08-31T10:00:15.616Z,15.60
2022-08-31T10:02:46.714Z,18.20
2022-08-31T10:05:35.070Z,15.60
2022-08-31T10:08:24.630Z,18.80
2022-08-31T10:10:56.205Z,18.40
2022-08-31T10:13:39.048Z,18.20
2022-08-31T10:16:19.953Z,18.00
2022-08-31T10:18:53.212Z,19.00
2022-08-31T10:21:26.749Z,19.80
2022-08-31T10:24:12.068Z,19.80
2022-08-31T10:26:48.939Z,18.20
2022-08-31T10:29:42.851Z,20.40
2022-08-31T10:32:21.809Z,20.00
2022-08-31T10:35:16.305Z,20.80
2022-08-31T10:38:20.075Z,15.80
2022-08-31T10:41:07.716Z,18.40
2022-08-31T10:44:08.228Z,17.40
2022-08-31T10:46:39.284Z,20.00
2022-08-31T10:49:10.061Z,17.20
2022-08-31T10:51:46.710Z,18.60
2022-08-31T10:54:19.972Z,19.60
2022-08-31T10:57:02.188Z,22.40
2022-08-31T11:00:04.581Z,20.80
2022-08-31T11:02:55.971Z,20.80
2022-08-31T11:05:53.610Z,22.40
2022-08-31T11:08:29.745Z,20.00
2022-08-31T11:11:01.401Z,21.20
2022-08-31T11:13:49.313Z,22.00
2022-08-31T11:16:24.493Z,23.40
2022-08-31T11:19:14.180Z,25.40
2022-08-31T11:22:16.196Z,20.00
2022-08-31T11:25:04.235Z,20.00
2022-08-31T11:27:40.418Z,19.00
2022-08-31T11:30:25.541Z,21.20
2022-08-31T11:32:58.769Z,21.60
2022-08-31T11:35:51.773Z,20.20
2022-08-31T11:38:52.090Z,21.40
2022-08-31T11:41:37.465Z,19.00
2022-08-31T11:44:10.667Z,21.60
2022-08-31T11:46:44.602Z,23.60
2022-08-31T11:49:35.942Z,21.20
2022-08-31T11:52:09.380Z,15.20
2022-08-31T11:54:46.215Z,19.60
2022-08-31T11:57:19.774Z,13.20
2022-08-31T11:59:51.029Z,18.40
2022-08-31T12:02:24.549Z,20.20
2022-08-31T12:04:57.707Z,18.20
2022-08-31T12:07:37.182Z,20.40
2022-08-31T12:10:16.454Z,19.60
2022-08-31T12:13:25.644Z,19.40
2022-08-31T12:16:01.597Z,12.80
2022-08-31T12:18:55.632Z,20.00
2022-08-31T12:21:40.313Z,21.40
2022-08-31T12:27:19.283Z,19.40
2022-08-31T12:29:49.931Z,19.80
2022-08-31T12:32:50.026Z,19.40
2022-08-31T12:35:23.430Z,21.40
2022-08-31T12:38:04.935Z,21.20
2022-08-31T12:40:53.479Z,20.20
2022-08-31T12:43:44.765Z,18.40
2022-08-31T12:46:34.650Z,19.80
2022-08-31T12:49:24.815Z,21.20
2022-08-31T12:52:13.386Z,24.00
2022-08-31T12:55:08.484Z,20.60
2022-08-31T12:58:09.330Z,19.60
2022-08-31T13:00:40.229Z,22.60
2022-08-31T13:03:16.543Z,21.60
2022-08-31T13:06:11.063Z,21.00
2022-08-31T13:08:44.715Z,20.80
2022-08-31T13:11:26.286Z,21.00
2022-08-31T13:14:14.050Z,22.60
2022-08-31T13:16:47.436Z,21.00
2022-08-31T13:19:23.831Z,20.00
2022-08-31T13:22:09.835Z,20.80
2022-08-31T13:24:47.943Z,20.60
2022-08-31T13:27:22.442Z,18.00
2022-08-31T13:29:55.719Z,20.80
2022-08-31T13:32:28.977Z,18.60
2022-08-31T13:35:02.307Z,18.80
2022-08-31T13:37:40.961Z,17.40
2022-08-31T13:40:14.403Z,18.00
2022-08-31T13:42:48.317Z,16.20
2022-08-31T13:45:26.950Z,18.40
2022-08-31T13:48:06.941Z,19.40
2022-08-31T13:50:43.322Z,24.40
2022-08-31T13:53:26.772Z,17.40
2022-08-31T13:55:48.902Z,21.80
2022-08-31T13:58:28.253Z,21.60
2022-08-31T14:01:19.794Z,27.00
2022-08-31T14:03:53.824Z,23.60
2022-08-31T14:06:26.876Z,24.60
2022-08-31T14:09:01.432Z,20.80
2022-08-31T14:11:33.977Z,18.60
2022-08-31T14:14:07.666Z,23.20
2022-08-31T14:16:43.695Z,21.60
2022-08-31T14:19:15.223Z,21.80
2022-08-31T14:21:45.631Z,23.40
2022-08-31T14:24:16.129Z,22.40
2022-08-31T14:26:46.643Z,22.00
2022-08-31T14:29:17.817Z,21.80
2022-08-31T14:31:51.041Z,21.60
2022-08-31T14:34:37.306Z,25.00
2022-08-31T14:37:10.608Z,22.00
2022-08-31T14:39:46.940Z,22.80
2022-08-31T14:42:23.741Z,20.20
2022-08-31T14:45:03.460Z,23.80
2022-08-31T14:47:38.317Z,23.00
2022-08-31T14:50:10.777Z,23.80
2022-08-31T14:53:02.468Z,23.20
2022-08-31T14:55:34.194Z,28.00
2022-08-31T14:58:08.321Z,25.00
2022-08-31T15:00:42.242Z,26.00
2022-08-31T15:03:14.108Z,22.40
2022-08-31T15:05:44.736Z,28.40
2022-08-31T15:08:15.698Z,25.80
2022-08-31T15:10:48.585Z,25.80
2022-08-31T15:13:19.148Z,25.20
2022-08-31T15:15:49.838Z,24.80
2022-08-31T15:18:21.614Z,23.20
2022-08-31T15:20:57.813Z,25.00
2022-08-31T15:23:30.518Z,25.00
2022-08-31T15:26:09.783Z,26.20
2022-08-31T15:28:42.357Z,23.80
2022-08-31T15:31:21.540Z,25.00
2022-08-31T15:33:57.590Z,21.20
2022-08-31T15:36:28.635Z,20.20
2022-08-31T15:38:59.313Z,23.60
2022-08-31T15:41:30.261Z,23.20
2022-08-31T15:47:11.867Z,22.00
2022-08-31T15:49:42.558Z,23.60
2022-08-31T15:52:13.257Z,26.20
2022-08-31T15:54:43.873Z,23.60
2022-08-31T15:57:14.536Z,24.60
2022-08-31T15:59:45.063Z,23.60
2022-08-31T16:02:19.192Z,25.40
2022-08-31T16:04:50.015Z,22.60
2022-08-31T16:07:20.591Z,21.80
2022-08-31T16:09:51.888Z,22.20
2022-08-31T16:12:22.774Z,25.40
2022-08-31T16:14:53.541Z,23.80
2022-08-31T16:17:24.869Z,24.20
2022-08-31T16:19:55.807Z,24.40
2022-08-31T16:22:30.918Z,25.60
2022-08-31T16:24:58.704Z,30.00
2022-08-31T16:27:29.523Z,23.40
2022-08-31T16:30:00.438Z,28.00
2022-08-31T16:32:30.921Z,25.60
2022-08-31T16:35:01.511Z,27.80
2022-08-31T16:37:33.321Z,28.60
2022-08-31T16:40:04.391Z,23.20
2022-08-31T16:42:35.360Z,26.40
2022-08-31T16:45:09.278Z,27.60
2022-08-31T16:47:39.758Z,25.00
2022-08-31T16:50:10.494Z,26.00
2022-08-31T16:52:41.023Z,21.40
2022-08-31T16:55:13.578Z,24.20
2022-08-31T16:57:44.223Z,24.60
2022-08-31T17:00:15.013Z,21.60
2022-08-31T17:02:45.848Z,20.20
2022-08-31T17:05:16.228Z,19.40
2022-08-31T17:07:46.780Z,20.80
2022-08-31T17:10:17.823Z,19.40
2022-08-31T17:12:48.610Z,16.00
2022-08-31T17:15:19.341Z,20.80
2022-08-31T17:17:50.588Z,18.40
2022-08-31T17:20:21.083Z,18.80
2022-08-31T17:22:52.176Z,18.60
2022-08-31T17:25:22.604Z,22.20
2022-08-31T17:27:59.351Z,22.40
2022-08-31T17:30:27.735Z,16.60
2022-08-31T17:32:58.391Z,18.80
2022-08-31T17:35:28.843Z,20.40
2022-08-31T17:37:59.925Z,21.00
2022-08-31T17:40:30.769Z,19.40
2022-08-31T17:43:04.574Z,19.80
2022-08-31T17:45:36.938Z,22.20
2022-08-31T17:48:09.121Z,16.60
2022-08-31T17:50:44.017Z,18.40
2022-08-31T17:53:17.312Z,21.40
2022-08-31T17:55:59.685Z,22.40
2022-08-31T17:58:33.030Z,17.40
2022-08-31T18:01:05.747Z,18.00
2022-08-31T18:03:36.194Z,19.00
2022-08-31T18:06:06.612Z,18.80
2022-08-31T18:08:37.088Z,15.40
2022-08-31T18:11:07.603Z,15.60
2022-08-31T18:13:37.992Z,15.60
2022-08-31T18:16:18.333Z,15.00
2022-08-31T18:18:50.137Z,16.60
2022-08-31T18:21:23.486Z,16.80
2022-08-31T18:23:54.809Z,16.00
2022-08-31T18:26:28.413Z,15.20
2022-08-31T18:28:59.447Z,15.00
2022-08-31T18:31:31.239Z,14.60
2022-08-31T18:34:06.708Z,13.80
2022-08-31T18:36:39.093Z,14.00
2022-08-31T18:39:22.744Z,15.00
2022-08-31T18:41:49.035Z,14.60
2022-08-31T18:44:19.741Z,13.80
2022-08-31T18:46:50.650Z,16.00
2022-08-31T18:49:22.273Z,13.00
2022-08-31T18:51:54.478Z,15.60
2022-08-31T18:54:25.364Z,15.40
2022-08-31T18:56:56.528Z,14.80
2022-08-31T18:59:26.932Z,14.80
2022-08-31T19:01:57.678Z,13.20
2022-08-31T19:04:28.408Z,13.00
2022-08-31T19:06:59.721Z,14.20
2022-08-31T19:09:30.851Z,16.60
2022-08-31T19:12:01.594Z,14.00
2022-08-31T19:14:35.658Z,13.60
2022-08-31T19:17:06.694Z,13.80
2022-08-31T19:19:37.305Z,12.60
2022-08-31T19:22:14.147Z,11.20
2022-08-31T19:24:47.398Z,13.40
2022-08-31T19:27:21.443Z,17.20
2022-08-31T19:29:52.455Z,14.60
2022-08-31T19:32:23.273Z,16.60
2022-08-31T19:34:53.753Z,14.20
2022-08-31T19:37:24.223Z,15.20
2022-08-31T19:39:54.620Z,19.20
2022-08-31T19:42:40.247Z,18.80
2022-08-31T19:47:31.885Z,16.80
2022-08-31T19:50:02.343Z,15.20
2022-08-31T19:52:33.273Z,14.00
2022-08-31T19:55:09.676Z,13.20
2022-08-31T19:57:41.654Z,15.40
2022-08-31T20:00:15.073Z,11.60
2022-08-31T20:02:46.115Z,15.00
2022-08-31T20:05:16.518Z,16.20
2022-08-31T20:07:48.949Z,15.80
2022-08-31T20:10:28.898Z,14.80
2022-08-31T20:12:58.768Z,15.00
2022-08-31T20:15:33.163Z,15.00
2022-08-31T20:18:05.116Z,16.60
2022-08-31T20:23:31.430Z,16.60
2022-08-31T20:26:04.364Z,15.60
2022-08-31T20:28:36.382Z,15.80
2022-08-31T20:31:13.222Z,17.20
2022-08-31T20:33:43.724Z,19.20
2022-08-31T20:36:28.372Z,14.60
2022-08-31T20:39:06.948Z,15.40
2022-08-31T20:41:44.232Z,15.20
2022-08-31T20:44:20.410Z,16.40
2022-08-31T20:46:53.847Z,16.20
2022-08-31T20:49:24.342Z,15.00
2022-08-31T20:51:56.995Z,15.60
2022-08-31T20:54:28.471Z,14.00
2022-08-31T20:57:01.159Z,14.00
2022-08-31T20:59:32.045Z,13.80
2022-08-31T21:02:04.950Z,16.00
2022-08-31T21:04:41.232Z,14.60
2022-08-31T21:07:12.863Z,13.40
2022-08-31T21:09:45.498Z,15.80
2022-08-31T21:12:18.055Z,14.60
2022-08-31T21:14:49.642Z,15.80
2022-08-31T21:17:20.208Z,15.80
2022-08-31T21:19:50.817Z,13.80
2022-08-31T21:22:21.456Z,12.40
2022-08-31T21:24:51.821Z,13.00
2022-08-31T21:27:22.197Z,16.60
2022-08-31T21:29:52.758Z,13.60
2022-08-31T21:32:23.608Z,13.40
2022-08-31T21:34:58.744Z,15.00
2022-08-31T21:37:29.156Z,14.80
2022-08-31T21:39:59.612Z,16.00
2022-08-31T21:42:31.266Z,17.40
2022-08-31T21:45:01.638Z,18.20
2022-08-31T21:47:32.715Z,12.60
2022-08-31T21:50:03.281Z,13.80
2022-08-31T21:52:34.386Z,15.00
2022-08-31T21:55:05.083Z,13.40
2022-08-31T21:57:36.078Z,18.80
2022-08-31T22:00:08.903Z,13.20
2022-08-31T22:02:40.819Z,13.60
2022-08-31T22:05:12.763Z,14.40
2022-08-31T22:07:43.627Z,16.80
2022-08-31T22:10:14.126Z,14.20
2022-08-31T22:12:44.813Z,15.80
2022-08-31T22:15:15.185Z,17.20
2022-08-31T22:18:11.455Z,15.20
2022-08-31T22:20:18.613Z,19.20
2022-08-31T22:22:48.936Z,17.80
2022-08-31T22:25:19.324Z,16.40
2022-08-31T22:27:49.739Z,15.00
2022-08-31T22:30:21.089Z,18.80
2022-08-31T22:32:51.882Z,17.80
2022-08-31T22:35:22.560Z,16.20
2022-08-31T22:37:53.248Z,15.00
2022-08-31T22:40:23.643Z,15.40
2022-08-31T22:42:55.083Z,17.00
2022-08-31T22:45:25.440Z,15.60
2022-08-31T22:47:56.285Z,18.00
2022-08-31T22:50:27.189Z,16.40
2022-08-31T22:52:58.230Z,15.20
2022-08-31T22:55:28.667Z,15.00
2022-08-31T22:57:59.592Z,19.40
2022-08-31T23:00:30.216Z,16.00
2022-08-31T23:03:00.739Z,15.00
2022-08-31T23:05:31.312Z,17.40
2022-08-31T23:08:01.717Z,15.20
2022-08-31T23:10:32.359Z,13.00
2022-08-31T23:13:03.922Z,15.40
2022-08-31T23:15:35.244Z,16.20
2022-08-31T23:18:05.908Z,15.60
2022-08-31T23:20:37.452Z,17.60
2022-08-31T23:23:07.904Z,13.00
2022-08-31T23:25:40.129Z,17.20
2022-08-31T23:28:10.437Z,18.00
2022-08-31T23:30:41.083Z,16.80
2022-08-31T23:33:11.437Z,19.20
2022-08-31T23:35:41.783Z,16.80
2022-08-31T23:38:12.159Z,18.60
2022-08-31T23:40:42.515Z,15.00
2022-08-31T23:43:12.998Z,20.20
2022-08-31T23:45:43.284Z,16.20
2022-08-31T23:48:13.668Z,18.00
2022-08-31T23:50:44.146Z,16.40
2022-08-31T23:53:14.608Z,16.40
2022-08-31T23:55:46.537Z,19.80
2022-08-31T23:58:17.433Z,17.20
